Time;durP1;ratioP1;P1;durP2;ratioP2;P2;SDS_P1;SDS_P2;PMS_P1;PMS_P2;Temp;Humidity;BMP_temperature;BMP_pressure;BME280_temperature;BME280_humidity;BME280_pressure;Samples;Min_cycle;Max_cycle;Signal;HPM_P1;HPM_P2
2024/03/06 00:02:21;;;;;;;;;;;;;;;;;;5137965;28;19953;-48
2024/03/06 00:04:47;;;;;;;;;;;;;;;;;;5138175;28;20369;-47
2024/03/06 00:07:13;;;;;;;;;;;;;;;;;;5138558;28;20369;-47
2024/03/06 00:09:39;;;;;;;;;;;;;;;;;;5137897;28;19911;-47
2024/03/06 00:12:06;;;;;;;;;;;;;;;;;;5137707;27;19911;-48
2024/03/06 00:14:32;;;;;;;;;;;;;;;;;;5141282;27;20374;-47
2024/03/06 00:16:57;;;;;;;;;;;;;;;;;;5142132;27;20600;-47
2024/03/06 00:19:23;;;;;;;;;;;;;;;;;;5141528;27;19907;-47
2024/03/06 00:21:49;;;;;;;;;;;;;;;;;;5141705;27;19907;-48
2024/03/06 00:24:15;;;;;;;;;;;;;;;;;;5141489;27;19908;-47
2024/03/06 00:26:41;;;;;;;;;;;;;;;;;;5141881;27;19915;-47
2024/03/06 00:29:07;;;;;;;;;;;;;;;;;;5141644;27;20390;-46
2024/03/06 00:31:33;;;;;;;;;;;;;;;;;;5141830;27;19930;-47
2024/03/06 00:33:59;;;;;;;;;;;;;;;;;;5141376;27;20374;-47
2024/03/06 00:36:25;;;;;;;;;;;;;;;;;;5141775;27;19973;-48
2024/03/06 00:38:51;;;;;;;;;;;;;;;;;;5142002;27;19914;-47
2024/03/06 00:41:17;;;;;;;;;;;;;;;;;;5141525;27;19912;-47
2024/03/06 00:43:49;;;;;;;;;;;;;;;;;;5141315;27;19907;-47
2024/03/06 00:46:15;;;;;;;;;;;;;;;;;;5141674;27;19907;-47
2024/03/06 00:48:40;;;;;;;;;;;;;;;;;;5141782;27;20006;-47
2024/03/06 00:51:07;;;;;;;;;;;;;;;;;;5141329;27;19918;-47
2024/03/06 00:53:33;;;;;;;;;;;;;;;;;;5141272;27;19911;-47
2024/03/06 00:55:59;;;;;;;;;;;;;;;;;;5141193;27;19954;-47
2024/03/06 00:58:24;;;;;;;;;;;;;;;;;;5141506;27;19908;-47
2024/03/06 01:00:50;;;;;;;;;;;;;;;;;;5141090;27;19908;-48
2024/03/06 01:03:16;;;;;;;;;;;;;;;;;;5141117;27;19976;-47
2024/03/06 01:05:45;;;;;;;;;;;;;;;;;;5140341;27;20276;-47
2024/03/06 01:08:11;;;;;;;;;;;;;;;;;;5141318;27;19914;-47
2024/03/06 01:10:37;;;;;;;;;;;;;;;;;;5141195;27;19914;-30
2024/03/06 01:13:03;;;;;;;;;;;;;;;;;;5140612;27;19911;-31
2024/03/06 01:15:29;;;;;;;;;;;;;;;;;;5140894;27;19914;-30
2024/03/06 01:17:55;;;;;;;;;;;;;;;;;;5141049;27;19907;-29
2024/03/06 01:20:21;;;;;;;;;;;;;;;;;;5140949;27;20312;-31
2024/03/06 01:22:47;;;;;;;;;;;;;;;;;;5141190;27;19911;-30
2024/03/06 01:25:13;;;;;;;;;;;;;;;;;;5140811;27;19990;-32
2024/03/06 01:27:39;;;;;;;;;;;;;;;;;;5140828;27;19914;-33
2024/03/06 01:30:05;;;;;;;;;;;;;;;;;;5140764;27;20366;-32
2024/03/06 01:32:32;;;;;;;;;;;;;;;;;;5140602;27;20006;-32
2024/03/06 01:34:58;;;;;;;;;;;;;;;;;;5140258;27;19908;-30
2024/03/06 01:37:24;;;;;;;;;;;;;;;;;;5140440;27;19904;-32
2024/03/06 01:39:51;;;;;;;;;;;;;;;;;;5140184;27;19907;-30
2024/03/06 01:42:18;;;;;;;;;;;;;;;;;;5140598;27;20282;-30
2024/03/06 01:44:43;;;;;;;;;;;;;;;;;;5140192;27;19907;-30
2024/03/06 01:47:09;;;;;;;;;;;;;;;;;;5140360;27;19914;-30
2024/03/06 01:49:35;;;;;;;;;;;;;;;;;;5140636;27;20411;-32
2024/03/06 01:52:02;;;;;;;;;;;;;;;;;;5140092;27;19918;-30
2024/03/06 01:54:28;;;;;;;;;;;;;;;;;;5140111;27;19907;-30
2024/03/06 01:56:54;;;;;;;;;;;;;;;;;;5140282;27;19958;-30
2024/03/06 01:59:20;;;;;;;;;;;;;;;;;;5139969;27;19907;-31
2024/03/06 02:01:46;;;;;;;;;;;;;;;;;;5140370;27;20292;-30
2024/03/06 02:04:12;;;;;;;;;;;;;;;;;;5139627;27;19926;-29
2024/03/06 02:06:38;;;;;;;;;;;;;;;;;;5139815;27;19913;-29
2024/03/06 02:09:04;;;;;;;;;;;;;;;;;;5140274;27;20396;-31
2024/03/06 02:11:30;;;;;;;;;;;;;;;;;;5139533;27;19940;-29
2024/03/06 02:13:56;;;;;;;;;;;;;;;;;;5138954;27;19916;-30
2024/03/06 02:16:21;;;;;;;;;;;;;;;;;;5139545;27;19958;-30
2024/03/06 02:18:47;;;;;;;;;;;;;;;;;;5140093;27;19915;-31
2024/03/06 02:21:14;;;;;;;;;;;;;;;;;;5139589;27;19958;-30
2024/03/06 02:23:40;;;;;;;;;;;;;;;;;;5139750;27;20243;-30
2024/03/06 02:26:07;;;;;;;;;;;;;;;;;;5139502;27;19957;-30
2024/03/06 02:28:34;;;;;;;;;;;;;;;;;;5139850;27;19911;-29
2024/03/06 02:31:01;;;;;;;;;;;;;;;;;;5139591;27;19998;-31
2024/03/06 02:33:28;;;;;;;;;;;;;;;;;;5139063;27;19923;-30
2024/03/06 02:35:54;;;;;;;;;;;;;;;;;;5139094;27;19907;-30
2024/03/06 02:38:20;;;;;;;;;;;;;;;;;;5139657;27;20006;-29
2024/03/06 02:40:47;;;;;;;;;;;;;;;;;;5139728;27;19962;-30
2024/03/06 02:43:15;;;;;;;;;;;;;;;;;;5139062;27;20006;-30
2024/03/06 02:45:41;;;;;;;;;;;;;;;;;;5139396;27;19994;-29
2024/03/06 02:48:07;;;;;;;;;;;;;;;;;;5138933;27;19918;-33
2024/03/06 02:50:33;;;;;;;;;;;;;;;;;;5139549;27;20350;-31
2024/03/06 02:52:59;;;;;;;;;;;;;;;;;;5138922;27;20285;-31
2024/03/06 02:55:25;;;;;;;;;;;;;;;;;;5139194;27;19908;-30
2024/03/06 02:57:51;;;;;;;;;;;;;;;;;;5120048;27;19935;-30
2024/03/06 03:00:17;;;;;;;;;;;;;;;;;;5138329;27;19918;-32
2024/03/06 03:02:43;;;;;;;;;;;;;;;;;;5138784;27;19912;-31
2024/03/06 03:05:09;;;;;;;;;;;;;;;;;;5137858;27;19931;-31
2024/03/06 03:07:35;;;;;;;;;;;;;;;;;;5138967;27;19954;-31
2024/03/06 03:10:01;;;;;;;;;;;;;;;;;;5139113;28;20273;-29
2024/03/06 03:12:27;;;;;;;;;;;;;;;;;;5138114;28;20022;-30
2024/03/06 03:14:53;;;;;;;;;;;;;;;;;;5138904;28;19956;-31
2024/03/06 03:17:22;;;;;;;;;;;;;;;;;;5138665;28;20350;-31
2024/03/06 03:19:48;;;;;;;;;;;;;;;;;;5139261;28;19931;-31
2024/03/06 03:22:14;;;;;;;;;;;;;;;;;;5138831;28;19904;-30
2024/03/06 03:24:40;;;;;;;;;;;;;;;;;;5139177;28;19971;-30
2024/03/06 03:27:06;;;;;;;;;;;;;;;;;;5139059;28;19915;-31
2024/03/06 03:29:32;;;;;;;;;;;;;;;;;;5138866;28;19903;-30
2024/03/06 03:31:58;;;;;;;;;;;;;;;;;;5138510;28;20351;-31
2024/03/06 03:34:24;;;;;;;;;;;;;;;;;;5138810;28;19907;-32
2024/03/06 03:36:50;;;;;;;;;;;;;;;;;;5138869;28;19960;-30
2024/03/06 03:39:16;;;;;;;;;;;;;;;;;;5139013;28;19907;-29
2024/03/06 03:41:42;;;;;;;;;;;;;;;;;;5138629;28;19907;-30
2024/03/06 03:44:08;;;;;;;;;;;;;;;;;;5138751;28;19998;-30
2024/03/06 03:46:34;;;;;;;;;;;;;;;;;;5139000;27;20358;-30
2024/03/06 03:49:00;;;;;;;;;;;;;;;;;;5141826;27;19951;-30
2024/03/06 03:51:26;;;;;;;;;;;;;;;;;;5142502;27;19907;-30
2024/03/06 03:53:52;;;;;;;;;;;;;;;;;;5142400;27;19974;-30
2024/03/06 03:56:18;;;;;;;;;;;;;;;;;;5142613;27;19914;-30
2024/03/06 03:58:44;;;;;;;;;;;;;;;;;;5142873;27;19908;-31
2024/03/06 04:01:10;;;;;;;;;;;;;;;;;;5142306;27;20382;-30
2024/03/06 04:03:36;;;;;;;;;;;;;;;;;;5142073;27;19916;-30
2024/03/06 04:06:02;;;;;;;;;;;;;;;;;;5142203;27;19911;-32
2024/03/06 04:08:28;;;;;;;;;;;;;;;;;;5142420;27;19907;-32
2024/03/06 04:10:54;;;;;;;;;;;;;;;;;;5142351;27;20266;-31
2024/03/06 04:13:21;;;;;;;;;;;;;;;;;;5142229;27;19998;-30
2024/03/06 04:15:47;;;;;;;;;;;;;;;;;;5141956;27;20370;-30
2024/03/06 04:18:13;;;;;;;;;;;;;;;;;;5142056;27;19957;-32
2024/03/06 04:20:39;;;;;;;;;;;;;;;;;;5142011;27;19911;-33
2024/03/06 04:23:05;;;;;;;;;;;;;;;;;;5142080;27;19994;-30
2024/03/06 04:25:31;;;;;;;;;;;;;;;;;;5141843;27;19908;-31
2024/03/06 04:27:57;;;;;;;;;;;;;;;;;;5142296;27;19912;-30
2024/03/06 04:30:23;;;;;;;;;;;;;;;;;;5138341;27;19934;-30
2024/03/06 04:32:49;;;;;;;;;;;;;;;;;;5129466;27;20290;-30
2024/03/06 04:35:15;;;;;;;;;;;;;;;;;;5132748;27;19908;-30
2024/03/06 04:37:45;;;;;;;;;;;;;;;;;;5126940;27;19908;-33
2024/03/06 04:40:11;;;;;;;;;;;;;;;;;;5130410;27;19915;-29
2024/03/06 04:42:37;;;;;;;;;;;;;;;;;;5131554;27;19919;-30
2024/03/06 04:45:03;;;;;;;;;;;;;;;;;;5128861;27;19908;-30
2024/03/06 04:47:29;;;;;;;;;;;;;;;;;;5130397;27;19968;-30
2024/03/06 04:49:55;;;;;;;;;;;;;;;;;;5129443;27;20236;-30
2024/03/06 04:52:21;;;;;;;;;;;;;;;;;;5131234;27;19918;-30
2024/03/06 04:54:47;;;;;;;;;;;;;;;;;;5127206;27;19912;-33
2024/03/06 04:57:13;;;;;;;;;;;;;;;;;;5135015;27;19956;-32
2024/03/06 04:59:39;;;;;;;;;;;;;;;;;;5132081;27;20371;-29
2024/03/06 05:02:05;;;;;;;;;;;;;;;;;;5127927;27;19994;-31
2024/03/06 05:04:32;;;;;;;;;;;;;;;;;;5129035;27;19919;-30
2024/03/06 05:06:58;;;;;;;;;;;;;;;;;;5131849;27;20340;-30
2024/03/06 05:09:23;;;;;;;;;;;;;;;;;;5130292;27;19911;-30
2024/03/06 05:11:50;;;;;;;;;;;;;;;;;;5131980;27;20381;-30
2024/03/06 05:14:17;;;;;;;;;;;;;;;;;;5132017;27;19914;-31
2024/03/06 05:16:43;;;;;;;;;;;;;;;;;;5128824;27;20415;-30
2024/03/06 05:19:10;;;;;;;;;;;;;;;;;;5130737;27;19908;-30
2024/03/06 05:21:36;;;;;;;;;;;;;;;;;;5129973;27;19908;-30
2024/03/06 05:24:02;;;;;;;;;;;;;;;;;;5128842;27;19923;-30
2024/03/06 05:26:28;;;;;;;;;;;;;;;;;;5131411;27;19908;-30
2024/03/06 05:28:54;;;;;;;;;;;;;;;;;;5134466;27;19960;-30
2024/03/06 05:31:20;;;;;;;;;;;;;;;;;;5134409;27;20317;-30
2024/03/06 05:33:46;;;;;;;;;;;;;;;;;;5127804;27;19911;-30
2024/03/06 05:36:15;;;;;;;;;;;;;;;;;;5129025;27;19908;-33
2024/03/06 05:38:41;;;;;;;;;;;;;;;;;;5131312;27;20362;-30
2024/03/06 05:41:08;;;;;;;;;;;;;;;;;;5130822;27;19918;-30
2024/03/06 05:43:34;;;;;;;;;;;;;;;;;;5128475;27;19987;-30
2024/03/06 05:46:00;;;;;;;;;;;;;;;;;;5128193;27;19994;-30
2024/03/06 05:48:26;;;;;;;;;;;;;;;;;;5126294;27;19911;-32
2024/03/06 05:50:52;;;;;;;;;;;;;;;;;;5128159;27;19908;-31
2024/03/06 05:53:18;;;;;;;;;;;;;;;;;;5129627;27;20282;-31
2024/03/06 05:55:44;;;;;;;;;;;;;;;;;;5130724;27;19908;-30
2024/03/06 05:58:10;;;;;;;;;;;;;;;;;;5130684;27;19908;-30
2024/03/06 06:00:36;;;;;;;;;;;;;;;;;;5128919;27;19916;-30
2024/03/06 06:03:02;;;;;;;;;;;;;;;;;;5130989;27;19907;-33
2024/03/06 06:05:29;;;;;;;;;;;;;;;;;;5126471;27;19919;-33
2024/03/06 06:07:55;;;;;;;;;;;;;;;;;;5132464;27;20321;-30
2024/03/06 06:10:21;;;;;;;;;;;;;;;;;;5126863;27;19919;-31
2024/03/06 06:12:47;;;;;;;;;;;;;;;;;;5129032;27;20394;-32
2024/03/06 06:15:13;;;;;;;;;;;;;;;;;;5126871;27;19907;-30
2024/03/06 06:17:39;;;;;;;;;;;;;;;;;;5130140;27;20332;-30
2024/03/06 06:20:09;;;;;;;;;;;;;;;;;;5128657;27;19911;-30
2024/03/06 06:22:35;;;;;;;;;;;;;;;;;;5132502;27;20007;-30
2024/03/06 06:25:03;;;;;;;;;;;;;;;;;;5134310;27;19955;-33
2024/03/06 06:27:29;;;;;;;;;;;;;;;;;;5129678;27;19911;-32
2024/03/06 06:29:55;;;;;;;;;;;;;;;;;;5129727;27;20002;-30
2024/03/06 06:32:21;;;;;;;;;;;;;;;;;;5129145;27;20052;-32
2024/03/06 06:34:47;;;;;;;;;;;;;;;;;;5127290;27;19950;-31
2024/03/06 06:37:14;;;;;;;;;;;;;;;;;;5128099;27;19907;-31
2024/03/06 06:39:40;;;;;;;;;;;;;;;;;;5129482;27;19959;-30
2024/03/06 06:42:06;;;;;;;;;;;;;;;;;;5138652;27;19911;-30
2024/03/06 06:44:32;;;;;;;;;;;;;;;;;;5138957;27;20307;-30
2024/03/06 06:46:58;;;;;;;;;;;;;;;;;;5138938;27;19914;-31
2024/03/06 06:49:24;;;;;;;;;;;;;;;;;;5132311;27;19953;-31
2024/03/06 06:51:50;;;;;;;;;;;;;;;;;;5118440;28;20302;-35
2024/03/06 06:54:16;;;;;;;;;;;;;;;;;;5118575;28;20003;-31
2024/03/06 06:56:42;;;;;;;;;;;;;;;;;;5118320;28;19908;-30
2024/03/06 06:59:08;;;;;;;;;;;;;;;;;;5126936;27;19911;-31
2024/03/06 07:01:34;;;;;;;;;;;;;;;;;;5125962;27;19966;-30
2024/03/06 07:04:00;;;;;;;;;;;;;;;;;;5127407;27;19919;-30
2024/03/06 07:06:26;;;;;;;;;;;;;;;;;;5128019;27;19907;-30
2024/03/06 07:08:52;;;;;;;;;;;;;;;;;;5131005;27;19908;-33
2024/03/06 07:11:18;;;;;;;;;;;;;;;;;;5108529;28;19911;-30
2024/03/06 07:13:44;;;;;;;;;;;;;;;;;;5126849;28;19911;-30
2024/03/06 07:16:11;;;;;;;;;;;;;;;;;;5132724;28;19969;-32
2024/03/06 07:18:37;;;;;;;;;;;;;;;;;;5136467;28;19911;-31
2024/03/06 07:21:03;;;;;;;;;;;;;;;;;;5129205;27;19914;-30
2024/03/06 07:23:29;;;;;;;;;;;;;;;;;;5131853;27;20006;-32
2024/03/06 07:25:57;;;;;;;;;;;;;;;;;;5138317;27;19918;-30
2024/03/06 07:28:23;;;;;;;;;;;;;;;;;;5136237;27;19907;-30
2024/03/06 07:30:49;;;;;;;;;;;;;;;;;;5138953;27;19914;-30
2024/03/06 07:33:15;;;;;;;;;;;;;;;;;;5135907;27;20336;-31
2024/03/06 07:35:41;;;;;;;;;;;;;;;;;;5138517;27;19919;-35
2024/03/06 07:38:07;;;;;;;;;;;;;;;;;;5130123;27;19956;-30
2024/03/06 07:40:33;;;;;;;;;;;;;;;;;;5132050;27;19911;-30
2024/03/06 07:42:59;;;;;;;;;;;;;;;;;;5136043;27;19914;-31
2024/03/06 07:45:26;;;;;;;;;;;;;;;;;;5137708;27;19911;-30
2024/03/06 07:47:52;;;;;;;;;;;;;;;;;;5140356;27;20302;-30
2024/03/06 07:50:18;;;;;;;;;;;;;;;;;;5122897;27;19911;-31
2024/03/06 07:52:45;;;;;;;;;;;;;;;;;;5142805;27;20252;-30
2024/03/06 07:55:11;;;;;;;;;;;;;;;;;;5142396;27;20343;-30
2024/03/06 07:57:37;;;;;;;;;;;;;;;;;;5142676;27;19947;-30
2024/03/06 08:00:08;;;;;;;;;;;;;;;;;;5142320;27;20657;-30
2024/03/06 08:02:35;;;;;;;;;;;;;;;;;;5142211;27;19908;-32
2024/03/06 08:05:01;;;;;;;;;;;;;;;;;;5142268;27;19919;-31
2024/03/06 08:07:27;;;;;;;;;;;;;;;;;;5142445;27;19995;-30
2024/03/06 08:09:54;;;;;;;;;;;;;;;;;;5142019;27;19918;-30
2024/03/06 08:12:20;;;;;;;;;;;;;;;;;;5142096;27;20353;-32
2024/03/06 08:14:46;;;;;;;;;;;;;;;;;;5142357;27;19907;-30
2024/03/06 08:17:12;;;;;;;;;;;;;;;;;;5142235;27;20463;-30
2024/03/06 08:19:38;;;;;;;;;;;;;;;;;;5141875;27;20313;-30
2024/03/06 08:22:04;;;;;;;;;;;;;;;;;;5141905;27;19963;-30
2024/03/06 08:24:30;;;;;;;;;;;;;;;;;;5142195;27;20319;-33
2024/03/06 08:26:56;;;;;;;;;;;;;;;;;;5141872;27;19910;-31
2024/03/06 08:29:22;;;;;;;;;;;;;;;;;;5141620;27;19914;-33
2024/03/06 08:31:48;;;;;;;;;;;;;;;;;;5141678;27;20337;-31
2024/03/06 08:34:16;;;;;;;;;;;;;;;;;;5140970;27;19908;-30
2024/03/06 08:36:42;;;;;;;;;;;;;;;;;;5141637;27;19929;-31
2024/03/06 08:39:12;;;;;;;;;;;;;;;;;;5141744;27;19908;-32
2024/03/06 08:41:38;;;;;;;;;;;;;;;;;;5141389;27;20364;-32
2024/03/06 08:44:04;;;;;;;;;;;;;;;;;;5141758;27;19907;-30
2024/03/06 08:46:30;;;;;;;;;;;;;;;;;;5141271;27;19930;-32
2024/03/06 08:48:56;;;;;;;;;;;;;;;;;;5141457;27;19907;-30
2024/03/06 08:51:22;;;;;;;;;;;;;;;;;;5141927;27;20351;-30
2024/03/06 08:53:48;;;;;;;;;;;;;;;;;;5141164;27;20009;-33
2024/03/06 08:56:15;;;;;;;;;;;;;;;;;;5141571;27;19907;-29
2024/03/06 08:58:41;;;;;;;;;;;;;;;;;;5141180;27;19904;-30
2024/03/06 09:01:07;;;;;;;;;;;;;;;;;;5141424;27;19956;-30
2024/03/06 09:03:33;;;;;;;;;;;;;;;;;;5141086;27;19962;-31
2024/03/06 09:05:59;;;;;;;;;;;;;;;;;;5140981;27;20369;-30
2024/03/06 09:08:25;;;;;;;;;;;;;;;;;;5141165;27;19914;-30
2024/03/06 09:10:51;;;;;;;;;;;;;;;;;;5141286;27;19908;-30
2024/03/06 09:13:17;;;;;;;;;;;;;;;;;;5140843;27;19915;-30
2024/03/06 09:15:43;;;;;;;;;;;;;;;;;;5141177;27;20342;-30
2024/03/06 09:18:10;;;;;;;;;;;;;;;;;;5140568;27;20313;-33
2024/03/06 09:20:36;;;;;;;;;;;;;;;;;;5141173;27;19939;-32
2024/03/06 09:23:02;;;;;;;;;;;;;;;;;;5140705;27;20364;-29
2024/03/06 09:25:28;;;;;;;;;;;;;;;;;;5140723;27;19954;-30
2024/03/06 09:27:54;;;;;;;;;;;;;;;;;;5140782;27;19911;-30
2024/03/06 09:30:20;;;;;;;;;;;;;;;;;;5141037;27;19908;-33
2024/03/06 09:32:46;;;;;;;;;;;;;;;;;;5140403;27;19911;-30
2024/03/06 09:35:14;;;;;;;;;;;;;;;;;;5140467;27;19998;-33
2024/03/06 09:37:40;;;;;;;;;;;;;;;;;;5140293;27;19907;-30
2024/03/06 09:40:07;;;;;;;;;;;;;;;;;;5140720;27;19904;-30
2024/03/06 09:42:33;;;;;;;;;;;;;;;;;;5140138;27;20252;-31
2024/03/06 09:44:59;;;;;;;;;;;;;;;;;;5139368;27;19904;-30
2024/03/06 09:47:26;;;;;;;;;;;;;;;;;;5121716;27;19929;-30
2024/03/06 09:49:53;;;;;;;;;;;;;;;;;;5140228;27;19907;-31
2024/03/06 09:52:19;;;;;;;;;;;;;;;;;;5140046;27;19911;-31
2024/03/06 09:54:45;;;;;;;;;;;;;;;;;;5140089;27;19944;-30
2024/03/06 09:57:13;;;;;;;;;;;;;;;;;;5140071;27;20434;-32
2024/03/06 09:59:43;;;;;;;;;;;;;;;;;;5140188;27;19912;-33
2024/03/06 10:02:09;;;;;;;;;;;;;;;;;;5140368;27;19910;-30
2024/03/06 10:04:37;;;;;;;;;;;;;;;;;;5139723;27;19920;-30
2024/03/06 10:07:03;;;;;;;;;;;;;;;;;;5139870;27;19973;-32
2024/03/06 10:09:31;;;;;;;;;;;;;;;;;;5140012;27;19907;-33
2024/03/06 10:11:57;;;;;;;;;;;;;;;;;;5139613;27;19918;-30
2024/03/06 10:14:23;;;;;;;;;;;;;;;;;;5139736;27;19908;-31
2024/03/06 10:16:49;;;;;;;;;;;;;;;;;;5139658;27;20002;-31
2024/03/06 10:19:16;;;;;;;;;;;;;;;;;;5139597;27;19913;-30
2024/03/06 10:21:44;;;;;;;;;;;;;;;;;;5120967;27;19915;-32
2024/03/06 10:24:11;;;;;;;;;;;;;;;;;;5139531;27;20269;-32
2024/03/06 10:26:37;;;;;;;;;;;;;;;;;;5139706;27;19956;-30
2024/03/06 10:29:03;;;;;;;;;;;;;;;;;;5139828;27;19908;-32
2024/03/06 10:31:29;;;;;;;;;;;;;;;;;;5139930;27;19914;-32
2024/03/06 10:33:55;;;;;;;;;;;;;;;;;;5139160;27;19911;-30
2024/03/06 10:36:21;;;;;;;;;;;;;;;;;;5139666;27;20391;-30
2024/03/06 10:38:47;;;;;;;;;;;;;;;;;;5139687;27;20274;-30
2024/03/06 10:41:13;;;;;;;;;;;;;;;;;;5139510;27;19915;-32
2024/03/06 10:43:39;;;;;;;;;;;;;;;;;;5139345;27;19904;-32
2024/03/06 10:46:05;;;;;;;;;;;;;;;;;;5139511;27;19908;-31
2024/03/06 10:48:31;;;;;;;;;;;;;;;;;;5139067;27;19904;-32
2024/03/06 10:50:59;;;;;;;;;;;;;;;;;;5139578;27;20335;-30
2024/03/06 10:53:26;;;;;;;;;;;;;;;;;;5139170;27;19911;-32
2024/03/06 10:55:52;;;;;;;;;;;;;;;;;;5138798;27;20232;-30
2024/03/06 10:58:19;;;;;;;;;;;;;;;;;;5138797;27;19918;-30
2024/03/06 11:00:46;;;;;;;;;;;;;;;;;;5138772;27;19914;-30
2024/03/06 11:03:12;;;;;;;;;;;;;;;;;;5139130;27;19911;-30
2024/03/06 11:05:41;;;;;;;;;;;;;;;;;;5138502;27;19924;-30
2024/03/06 11:08:07;;;;;;;;;;;;;;;;;;5120441;28;19914;-32
2024/03/06 11:10:33;;;;;;;;;;;;;;;;;;5138785;28;19907;-30
2024/03/06 11:12:59;;;;;;;;;;;;;;;;;;5138978;28;19912;-30
2024/03/06 11:15:25;;;;;;;;;;;;;;;;;;5138805;28;19908;-30
2024/03/06 11:17:54;;;;;;;;;;;;;;;;;;5138920;28;19907;-30
2024/03/06 11:20:21;;;;;;;;;;;;;;;;;;5138716;28;19908;-30
2024/03/06 11:22:47;;;;;;;;;;;;;;;;;;5139067;28;19907;-30
2024/03/06 11:25:13;;;;;;;;;;;;;;;;;;5138781;28;19915;-30
2024/03/06 11:27:39;;;;;;;;;;;;;;;;;;5138718;28;19904;-30
2024/03/06 11:30:10;;;;;;;;;;;;;;;;;;5138494;28;19908;-31
2024/03/06 11:32:36;;;;;;;;;;;;;;;;;;5138331;28;19975;-30
2024/03/06 11:35:04;;;;;;;;;;;;;;;;;;5138671;28;20006;-30
2024/03/06 11:37:30;;;;;;;;;;;;;;;;;;5138441;28;19931;-30
2024/03/06 11:39:56;;;;;;;;;;;;;;;;;;5138565;28;19908;-30
2024/03/06 11:42:22;;;;;;;;;;;;;;;;;;5138908;28;20422;-31
2024/03/06 11:44:48;;;;;;;;;;;;;;;;;;5138556;28;19912;-30
2024/03/06 11:47:14;;;;;;;;;;;;;;;;;;5138989;28;19907;-30
2024/03/06 11:49:40;;;;;;;;;;;;;;;;;;5138722;28;19908;-30
2024/03/06 11:52:07;;;;;;;;;;;;;;;;;;5138859;28;20454;-30
2024/03/06 11:54:33;;;;;;;;;;;;;;;;;;5138279;28;20386;-31
2024/03/06 11:56:59;;;;;;;;;;;;;;;;;;5120022;28;19931;-30
2024/03/06 11:59:25;;;;;;;;;;;;;;;;;;5138894;28;19914;-30
2024/03/06 12:01:52;;;;;;;;;;;;;;;;;;5138526;28;19907;-30
2024/03/06 12:04:18;;;;;;;;;;;;;;;;;;5138185;28;20059;-31
2024/03/06 12:06:44;;;;;;;;;;;;;;;;;;5138378;28;20014;-30
2024/03/06 12:09:11;;;;;;;;;;;;;;;;;;5140283;27;19911;-32
2024/03/06 12:11:37;;;;;;;;;;;;;;;;;;5142047;27;19913;-32
2024/03/06 12:14:03;;;;;;;;;;;;;;;;;;5141763;27;19912;-33
2024/03/06 12:16:29;;;;;;;;;;;;;;;;;;5141921;27;20307;-32
2024/03/06 12:18:57;;;;;;;;;;;;;;;;;;5142245;27;19914;-30
2024/03/06 12:21:23;;;;;;;;;;;;;;;;;;5142170;27;19908;-31
2024/03/06 12:23:49;;;;;;;;;;;;;;;;;;5142381;27;19915;-30
2024/03/06 12:26:15;;;;;;;;;;;;;;;;;;5142126;27;19984;-30
2024/03/06 12:28:44;;;;;;;;;;;;;;;;;;5141595;27;19930;-31
2024/03/06 12:31:10;;;;;;;;;;;;;;;;;;5141570;27;19907;-30
2024/03/06 12:33:36;;;;;;;;;;;;;;;;;;5141954;27;19911;-32
2024/03/06 12:36:02;;;;;;;;;;;;;;;;;;5141592;27;19908;-30
2024/03/06 12:38:29;;;;;;;;;;;;;;;;;;5142111;27;20333;-30
2024/03/06 12:40:55;;;;;;;;;;;;;;;;;;5141545;27;19907;-30
2024/03/06 12:43:21;;;;;;;;;;;;;;;;;;5141606;27;20354;-33
2024/03/06 12:45:47;;;;;;;;;;;;;;;;;;5141582;27;20435;-31
2024/03/06 12:48:13;;;;;;;;;;;;;;;;;;5141908;27;19920;-31
2024/03/06 12:50:39;;;;;;;;;;;;;;;;;;5141422;27;20701;-30
2024/03/06 12:53:05;;;;;;;;;;;;;;;;;;5141334;27;20389;-30
2024/03/06 12:55:31;;;;;;;;;;;;;;;;;;5141739;27;19958;-32
2024/03/06 12:57:57;;;;;;;;;;;;;;;;;;5141463;27;19951;-31
2024/03/06 13:00:23;;;;;;;;;;;;;;;;;;5140873;27;19912;-31
2024/03/06 13:02:50;;;;;;;;;;;;;;;;;;5141175;27;19914;-30
2024/03/06 13:05:16;;;;;;;;;;;;;;;;;;5140849;27;19926;-32
2024/03/06 13:07:42;;;;;;;;;;;;;;;;;;5141236;27;19907;-31
2024/03/06 13:10:10;;;;;;;;;;;;;;;;;;5141283;27;19916;-30
2024/03/06 13:12:36;;;;;;;;;;;;;;;;;;5122440;27;19912;-32
2024/03/06 13:15:02;;;;;;;;;;;;;;;;;;5141383;27;19908;-30
2024/03/06 13:17:29;;;;;;;;;;;;;;;;;;5140803;27;19962;-30
2024/03/06 13:19:56;;;;;;;;;;;;;;;;;;5140480;27;19929;-30
2024/03/06 13:22:22;;;;;;;;;;;;;;;;;;5140782;27;19907;-32
2024/03/06 13:24:48;;;;;;;;;;;;;;;;;;5141034;27;19918;-31
2024/03/06 13:27:14;;;;;;;;;;;;;;;;;;5140763;27;20292;-32
2024/03/06 13:29:40;;;;;;;;;;;;;;;;;;5140643;27;19998;-30
2024/03/06 13:32:06;;;;;;;;;;;;;;;;;;5140377;27;20240;-30
2024/03/06 13:34:32;;;;;;;;;;;;;;;;;;5140237;27;19907;-31
2024/03/06 13:36:58;;;;;;;;;;;;;;;;;;5140393;27;19908;-30
2024/03/06 13:39:24;;;;;;;;;;;;;;;;;;5140837;27;19908;-31
2024/03/06 13:41:50;;;;;;;;;;;;;;;;;;5140325;27;19951;-32
2024/03/06 13:44:16;;;;;;;;;;;;;;;;;;5140706;27;19915;-32
2024/03/06 13:46:42;;;;;;;;;;;;;;;;;;5140256;27;19907;-30
2024/03/06 13:49:08;;;;;;;;;;;;;;;;;;5140454;27;20392;-30
2024/03/06 13:51:34;;;;;;;;;;;;;;;;;;5140086;27;19908;-30
2024/03/06 13:54:00;;;;;;;;;;;;;;;;;;5121483;27;19912;-30
2024/03/06 13:56:26;;;;;;;;;;;;;;;;;;5139984;27;19971;-30
2024/03/06 13:58:52;;;;;;;;;;;;;;;;;;5140071;27;19975;-31
2024/03/06 14:01:18;;;;;;;;;;;;;;;;;;5140268;27;20500;-30
2024/03/06 14:03:44;;;;;;;;;;;;;;;;;;5139777;27;19951;-33
2024/03/06 14:06:10;;;;;;;;;;;;;;;;;;5140090;27;19914;-32
2024/03/06 14:08:39;;;;;;;;;;;;;;;;;;5139915;27;20015;-30
2024/03/06 14:11:06;;;;;;;;;;;;;;;;;;5139600;27;20282;-31
2024/03/06 14:13:32;;;;;;;;;;;;;;;;;;5140610;27;19954;-30
2024/03/06 14:16:00;;;;;;;;;;;;;;;;;;5139406;27;19908;-31
2024/03/06 14:18:26;;;;;;;;;;;;;;;;;;5139431;27;20394;-31
2024/03/06 14:20:52;;;;;;;;;;;;;;;;;;5139631;27;19907;-31
2024/03/06 14:23:18;;;;;;;;;;;;;;;;;;5139646;27;19958;-31
2024/03/06 14:25:44;;;;;;;;;;;;;;;;;;5139571;27;19907;-30
2024/03/06 14:28:10;;;;;;;;;;;;;;;;;;5139310;27;19966;-30
2024/03/06 14:30:37;;;;;;;;;;;;;;;;;;5139795;27;19903;-31
2024/03/06 14:33:04;;;;;;;;;;;;;;;;;;5138781;27;20426;-30
2024/03/06 14:35:30;;;;;;;;;;;;;;;;;;5139390;27;20361;-30
2024/03/06 14:37:56;;;;;;;;;;;;;;;;;;5139168;27;19930;-31
2024/03/06 14:40:22;;;;;;;;;;;;;;;;;;5139715;27;19908;-30
2024/03/06 14:42:48;;;;;;;;;;;;;;;;;;5138821;27;19988;-31
2024/03/06 14:45:14;;;;;;;;;;;;;;;;;;5139794;27;19908;-33
2024/03/06 14:47:40;;;;;;;;;;;;;;;;;;5139282;27;19914;-30
2024/03/06 14:50:06;;;;;;;;;;;;;;;;;;5139188;27;19914;-35
2024/03/06 14:52:31;;;;;;;;;;;;;;;;;;5139255;27;19918;-30
2024/03/06 14:54:58;;;;;;;;;;;;;;;;;;5139328;27;19908;-33
2024/03/06 14:57:23;;;;;;;;;;;;;;;;;;5139345;27;19908;-33
2024/03/06 14:59:50;;;;;;;;;;;;;;;;;;5138980;27;19907;-33
2024/03/06 15:02:16;;;;;;;;;;;;;;;;;;5138974;27;19918;-30
2024/03/06 15:04:42;;;;;;;;;;;;;;;;;;5138821;27;19923;-32
2024/03/06 15:07:09;;;;;;;;;;;;;;;;;;5138909;27;19911;-29
2024/03/06 15:09:35;;;;;;;;;;;;;;;;;;5139018;27;19956;-30
2024/03/06 15:12:03;;;;;;;;;;;;;;;;;;5139005;27;19915;-31
2024/03/06 15:14:31;;;;;;;;;;;;;;;;;;5138953;28;19915;-30
2024/03/06 15:16:57;;;;;;;;;;;;;;;;;;5138759;28;19907;-33
2024/03/06 15:19:23;;;;;;;;;;;;;;;;;;5138837;28;20378;-30
2024/03/06 15:21:49;;;;;;;;;;;;;;;;;;5138750;28;20391;-30
2024/03/06 15:24:15;;;;;;;;;;;;;;;;;;5138678;28;20040;-30
2024/03/06 15:26:41;;;;;;;;;;;;;;;;;;5138769;28;19911;-31
2024/03/06 15:29:09;;;;;;;;;;;;;;;;;;5139180;28;19986;-32
2024/03/06 15:31:35;;;;;;;;;;;;;;;;;;5138838;28;19908;-30
2024/03/06 15:34:01;;;;;;;;;;;;;;;;;;5139098;28;19918;-30
2024/03/06 15:36:27;;;;;;;;;;;;;;;;;;5138732;28;19960;-30
2024/03/06 15:38:56;;;;;;;;;;;;;;;;;;5119914;28;19907;-30
2024/03/06 15:41:22;;;;;;;;;;;;;;;;;;5137882;28;19918;-31
2024/03/06 15:43:48;;;;;;;;;;;;;;;;;;5139747;27;19907;-31
2024/03/06 15:46:14;;;;;;;;;;;;;;;;;;5141065;27;19911;-31
2024/03/06 15:48:41;;;;;;;;;;;;;;;;;;5141241;27;19914;-30
2024/03/06 15:51:08;;;;;;;;;;;;;;;;;;5140935;27;19907;-30
2024/03/06 15:53:34;;;;;;;;;;;;;;;;;;5142145;27;19918;-31
2024/03/06 15:56:00;;;;;;;;;;;;;;;;;;5142944;27;19907;-30
2024/03/06 15:58:26;;;;;;;;;;;;;;;;;;5142775;27;19982;-30
2024/03/06 16:00:52;;;;;;;;;;;;;;;;;;5142875;27;19914;-32
2024/03/06 16:03:18;;;;;;;;;;;;;;;;;;5142169;27;19907;-32
2024/03/06 16:05:44;;;;;;;;;;;;;;;;;;5142791;27;19907;-30
2024/03/06 16:08:10;;;;;;;;;;;;;;;;;;5142268;27;19908;-30
2024/03/06 16:10:36;;;;;;;;;;;;;;;;;;5142533;27;20342;-30
2024/03/06 16:13:03;;;;;;;;;;;;;;;;;;5142363;27;19912;-30
2024/03/06 16:15:29;;;;;;;;;;;;;;;;;;5141923;27;20391;-33
2024/03/06 16:17:55;;;;;;;;;;;;;;;;;;5142244;27;19994;-31
2024/03/06 16:20:21;;;;;;;;;;;;;;;;;;5142271;27;19907;-30
2024/03/06 16:22:47;;;;;;;;;;;;;;;;;;5141857;27;20022;-30
2024/03/06 16:25:13;;;;;;;;;;;;;;;;;;5142176;27;19953;-30
2024/03/06 16:27:39;;;;;;;;;;;;;;;;;;5141907;27;19965;-30
2024/03/06 16:30:05;;;;;;;;;;;;;;;;;;5142176;27;19914;-30
2024/03/06 16:32:31;;;;;;;;;;;;;;;;;;5141896;27;19994;-30
2024/03/06 16:34:57;;;;;;;;;;;;;;;;;;5141550;27;19997;-29
2024/03/06 16:37:23;;;;;;;;;;;;;;;;;;5141941;27;19908;-30
2024/03/06 16:39:49;;;;;;;;;;;;;;;;;;5141896;27;20357;-30